Etusivu
METAR-TAF:

METAR-TAF

Lentoasemat :

Saint-Yan, Ranska

Leveyspiiri: 46-24-45N, Pituuspiiri: 004-00-48E, korkeus merenpinnasta: 244 m

Tämänhetkinen sää

Tämä raportti tehtiin 31 minuuttia sitten, kello 07.00 UTC
Tuuli 2 kn luoteesta
Lämpötila 4°C
Kosteus 100%
Ilmanpaine 1025 hPa
Näkyvyys: 2000 m
utua

METAR: LFLN 250700Z AUTO 31002KT 2000 BR NSC 04/04 Q1025 TEMPO 0300 FG VV///

Aika: 08:31 (07:31 UTC)

Sääennuste

Tämä raportti tehtiin 2 tuntia ja 31 minuuttia sitten, kello 05.00 UTC
Ennuste voimassa 25. päivästä klo 06 UTC - 25. päivään klo 15 UTC
Tuuli 5 kn lännestä
Näkyvyys: 4000 m
Hajanaisia pilviä 4000 ft:n korkeudessa
utua
Ajoittain
25. päivästä klo 06 UTC - 25. päivään klo 10 UTC
Näkyvyys: 0300 m
sumua
Tulossa
25. päivästä klo 10 UTC - 25. päivään klo 13 UTC
Tuuli 10 kn pohjoisen/luoteesta
Näkyvyys: 8000 m

TAF: LFLN 250500Z 2506/2515 28005KT 4000 BR SCT040 TEMPO 2506/2510 0300 FG VV/// BECMG 2510/2513 34010KT 8000 NSW

Säähavainnot ja -ennusteet yli 4000 lentoasemalta (METAR- ja TAF-raportit).

Käytössä olevat sääasemat on merkitty karttaan keltaisilla ja punaisilla pisteillä.

Aseta hiiri pisteen päälle nähdäksesi sääaseman nimen.

Klikkaa sitten nähdäksesi säähavainnot ja -ennusteet.

Kartan vaihtaminen: klikkaa mustalla rastilla varustettuja vihreitä pisteitä, niin voit zoomata sisään; viivalla varustettua vihreää pistettä, niin voit zoomata ulos tai vihreitä nuolia, niin pääset viereisille kartoille.


METAR-TAF: